createdAt,value
2023-04-26T00:00:30.662Z,101879.00
2023-04-26T00:02:59.974Z,101891.13
2023-04-26T00:05:27.216Z,101893.81
2023-04-26T00:07:54.275Z,101866.00
2023-04-26T00:10:23.053Z,101893.75
2023-04-26T00:12:49.800Z,101878.19
2023-04-26T00:15:16.438Z,101884.22
2023-04-26T00:17:43.108Z,101881.59
2023-04-26T00:20:13.175Z,101869.50
2023-04-26T00:22:40.680Z,101865.16
2023-04-26T00:25:07.619Z,101860.84
2023-04-26T00:27:34.160Z,101842.63
2023-04-26T00:30:00.714Z,101862.56
2023-04-26T00:32:27.240Z,101860.00
2023-04-26T00:34:53.830Z,101864.31
2023-04-26T00:37:21.388Z,101860.88
2023-04-26T00:39:47.915Z,101856.56
2023-04-26T00:42:14.439Z,101862.59
2023-04-26T00:44:40.915Z,101840.84
2023-04-26T00:47:07.732Z,101847.91
2023-04-26T00:49:35.798Z,101856.53
2023-04-26T00:52:02.756Z,101842.56
2023-04-26T00:54:29.531Z,101860.84
2023-04-26T00:56:56.215Z,101864.22
2023-04-26T00:59:23.054Z,101852.94
2023-04-26T01:01:49.702Z,101866.78
2023-04-26T01:04:16.621Z,101839.00
2023-04-26T01:06:44.144Z,101864.06
2023-04-26T01:09:12.539Z,101859.75
2023-04-26T01:11:39.003Z,101844.19
2023-04-26T01:14:06.095Z,101849.38
2023-04-26T01:16:33.005Z,101863.22
2023-04-26T01:19:07.736Z,101851.13
2023-04-26T01:21:34.509Z,101831.16
2023-04-26T01:24:01.439Z,101835.56
2023-04-26T01:26:27.921Z,101825.22
2023-04-26T01:28:54.554Z,101823.47
2023-04-26T01:31:21.398Z,101829.63
2023-04-26T01:33:47.953Z,101812.38
2023-04-26T01:36:14.426Z,101808.94
2023-04-26T01:38:41.721Z,101788.16
2023-04-26T01:41:08.248Z,101789.94
2023-04-26T01:43:34.828Z,101809.88
2023-04-26T01:46:01.353Z,101783.84
2023-04-26T01:48:30.977Z,101812.50
2023-04-26T01:50:57.530Z,101815.13
2023-04-26T01:53:24.005Z,101795.13
2023-04-26T01:55:50.923Z,101811.69
2023-04-26T01:58:17.434Z,101804.84
2023-04-26T02:00:43.933Z,101806.56
2023-04-26T02:03:10.767Z,101786.72
2023-04-26T02:05:37.359Z,101804.91
2023-04-26T02:08:04.494Z,101794.53
2023-04-26T02:10:30.955Z,101784.19
2023-04-26T02:12:57.425Z,101780.63
2023-04-26T02:15:23.910Z,101801.53
2023-04-26T02:17:50.616Z,101810.19
2023-04-26T02:20:17.136Z,101815.41
2023-04-26T02:22:43.678Z,101812.81
2023-04-26T02:25:13.239Z,101824.91
2023-04-26T02:27:39.746Z,101818.91
2023-04-26T02:30:06.981Z,101776.47
2023-04-26T02:32:33.860Z,101815.47
2023-04-26T02:35:00.936Z,101806.78
2023-04-26T02:37:27.458Z,101789.56
2023-04-26T02:39:54.101Z,101803.38
2023-04-26T02:42:23.537Z,101807.75
2023-04-26T02:44:50.010Z,101807.78
2023-04-26T02:47:16.821Z,101815.59
2023-04-26T02:49:43.370Z,101794.81
2023-04-26T02:52:09.900Z,101812.13
2023-04-26T02:54:36.388Z,101794.81
2023-04-26T02:57:02.898Z,101806.97
2023-04-26T02:59:29.837Z,101807.84
2023-04-26T03:01:58.763Z,101819.94
2023-04-26T03:04:25.370Z,101813.00
2023-04-26T03:06:52.067Z,101809.56
2023-04-26T03:09:18.527Z,101809.56
2023-04-26T03:11:45.044Z,101810.44
2023-04-26T03:14:13.777Z,101810.44
2023-04-26T03:16:44.481Z,101807.84
2023-04-26T03:19:11.465Z,101781.78
2023-04-26T03:21:37.959Z,101806.16
2023-04-26T03:24:04.702Z,101791.41
2023-04-26T03:26:31.202Z,101786.19
2023-04-26T03:28:58.050Z,101798.34
2023-04-26T03:31:24.774Z,101800.06
2023-04-26T03:33:51.807Z,101803.53
2023-04-26T03:36:18.655Z,101791.38
2023-04-26T03:38:45.131Z,101779.25
2023-04-26T03:41:11.773Z,101776.66
2023-04-26T03:43:38.313Z,101786.19
2023-04-26T03:46:05.615Z,101749.78
2023-04-26T03:48:32.196Z,101781.00
2023-04-26T03:50:58.660Z,101784.47
2023-04-26T03:53:25.148Z,101775.84
2023-04-26T03:55:51.899Z,101774.94
2023-04-26T03:58:18.355Z,101774.94
2023-04-26T04:00:47.735Z,101779.28
2023-04-26T04:03:14.568Z,101781.91
2023-04-26T04:05:41.360Z,101777.59
2023-04-26T04:08:08.172Z,101770.66
2023-04-26T04:10:34.934Z,101765.47
2023-04-26T04:13:01.476Z,101747.22
2023-04-26T04:15:28.057Z,101752.50
2023-04-26T04:17:54.652Z,101759.41
2023-04-26T04:20:21.466Z,101754.25
2023-04-26T04:22:48.047Z,101750.78
2023-04-26T04:25:14.640Z,101753.41
2023-04-26T04:27:43.516Z,101743.88
2023-04-26T04:30:10.586Z,101751.69
2023-04-26T04:32:38.040Z,101739.50
2023-04-26T04:35:05.666Z,101751.69
2023-04-26T04:37:34.908Z,101733.50
2023-04-26T04:40:02.123Z,101749.94
2023-04-26T04:42:28.952Z,101749.97
2023-04-26T04:44:56.294Z,101737.81
2023-04-26T04:47:22.867Z,101745.66
2023-04-26T04:49:49.363Z,101740.47
2023-04-26T04:52:18.642Z,101730.00
2023-04-26T04:54:48.522Z,101747.38
2023-04-26T04:57:17.034Z,101756.00
2023-04-26T04:59:43.570Z,101744.75
2023-04-26T05:02:10.194Z,101724.81
2023-04-26T05:04:36.938Z,101744.78
2023-04-26T05:07:03.638Z,101723.97
2023-04-26T05:09:32.409Z,101736.97
2023-04-26T05:11:58.917Z,101746.47
2023-04-26T05:14:25.374Z,101741.28
2023-04-26T05:16:51.914Z,101724.00
2023-04-26T05:19:18.410Z,101720.53
2023-04-26T05:21:44.903Z,101750.00
2023-04-26T05:24:11.509Z,101735.28
2023-04-26T05:26:38.145Z,101754.41
2023-04-26T05:29:04.718Z,101748.34
2023-04-26T05:31:31.572Z,101758.75
2023-04-26T05:33:58.198Z,101740.56
2023-04-26T05:36:24.798Z,101740.59
2023-04-26T05:38:51.261Z,101775.28
2023-04-26T05:41:17.826Z,101743.22
2023-04-26T05:43:44.280Z,101764.06
2023-04-26T05:46:10.763Z,101756.31
2023-04-26T05:48:37.262Z,101758.09
2023-04-26T05:51:03.933Z,101749.41
2023-04-26T05:53:30.699Z,101750.31
2023-04-26T05:55:57.356Z,101749.50
2023-04-26T05:58:23.954Z,101765.13
2023-04-26T06:00:50.420Z,101772.94
2023-04-26T06:03:17.268Z,101767.75
2023-04-26T06:05:44.035Z,101764.34
2023-04-26T06:08:10.548Z,101770.41
2023-04-26T06:10:37.733Z,101766.09
2023-04-26T06:13:04.665Z,101761.81
2023-04-26T06:15:34.130Z,101745.31
2023-04-26T06:18:00.705Z,101760.97
2023-04-26T06:20:27.923Z,101777.44
2023-04-26T06:22:56.457Z,101754.06
2023-04-26T06:25:22.992Z,101761.88
2023-04-26T06:27:49.761Z,101765.34
2023-04-26T06:30:19.418Z,101774.88
2023-04-26T06:32:46.137Z,101767.94
2023-04-26T06:35:12.692Z,101762.78
2023-04-26T06:37:39.650Z,101762.78
2023-04-26T06:40:06.725Z,101769.75
2023-04-26T06:42:33.255Z,101766.34
2023-04-26T06:44:59.763Z,101767.19
2023-04-26T06:47:26.503Z,101764.59
2023-04-26T06:49:53.063Z,101769.81
2023-04-26T06:52:21.992Z,101763.75
2023-04-26T06:54:56.484Z,101740.34
2023-04-26T06:57:24.283Z,101756.81
2023-04-26T06:59:51.360Z,101749.91
2023-04-26T07:02:18.135Z,101755.94
2023-04-26T07:04:45.112Z,101746.44
2023-04-26T07:07:13.701Z,101769.84
2023-04-26T07:09:41.108Z,101746.44
2023-04-26T07:12:07.709Z,101743.84
2023-04-26T07:14:37.182Z,101764.63
2023-04-26T07:17:05.071Z,101755.97
2023-04-26T07:19:31.690Z,101761.19
2023-04-26T07:21:58.172Z,101743.88
2023-04-26T07:24:24.819Z,101738.66
2023-04-26T07:26:51.536Z,101743.00
2023-04-26T07:29:18.940Z,101753.41
2023-04-26T07:31:48.862Z,101759.47
2023-04-26T07:34:15.362Z,101749.94
2023-04-26T07:36:41.948Z,101754.28
2023-04-26T07:39:10.736Z,101761.19
2023-04-26T07:41:37.256Z,101746.47
2023-04-26T07:44:04.271Z,101742.13
2023-04-26T07:46:32.699Z,101744.72
2023-04-26T07:49:00.746Z,101740.34
2023-04-26T07:51:30.135Z,101758.56
2023-04-26T07:53:57.073Z,101755.94
2023-04-26T07:56:24.323Z,101758.53
2023-04-26T07:58:51.739Z,101768.06
2023-04-26T08:01:18.463Z,101737.72
2023-04-26T08:03:45.268Z,101762.88
2023-04-26T08:06:12.159Z,101763.72
2023-04-26T08:08:44.515Z,101760.25
2023-04-26T08:11:11.630Z,101764.59
2023-04-26T08:13:38.229Z,101769.78
2023-04-26T08:16:05.761Z,101781.06
2023-04-26T08:18:32.336Z,101768.09
2023-04-26T08:20:58.816Z,101778.47
2023-04-26T08:23:25.430Z,101768.06
2023-04-26T08:25:54.090Z,101784.53
2023-04-26T08:28:21.246Z,101781.06
2023-04-26T08:30:49.998Z,101781.91
2023-04-26T08:33:17.999Z,101778.47
2023-04-26T08:35:44.730Z,101769.78
2023-04-26T08:38:11.199Z,101775.84
2023-04-26T08:40:38.349Z,101764.56
2023-04-26T08:43:04.909Z,101771.50
2023-04-26T08:45:32.612Z,101755.84
2023-04-26T08:48:05.765Z,101766.22
2023-04-26T08:50:34.416Z,101728.88
2023-04-26T08:53:00.986Z,101759.19
2023-04-26T08:55:28.012Z,101760.81
2023-04-26T08:57:55.980Z,101747.78
2023-04-26T09:00:23.122Z,101739.91
2023-04-26T09:02:51.857Z,101753.69
2023-04-26T09:05:24.371Z,101762.22
2023-04-26T09:08:16.744Z,101744.84
2023-04-26T09:10:43.452Z,101727.38
2023-04-26T09:13:11.316Z,101754.16
2023-04-26T09:15:38.129Z,101764.50
2023-04-26T09:18:22.169Z,101761.03
2023-04-26T09:21:17.866Z,101761.84
2023-04-26T09:24:04.373Z,101766.16
2023-04-26T09:26:31.050Z,101760.03
2023-04-26T09:29:14.899Z,101765.19
2023-04-26T09:31:49.341Z,101764.28
2023-04-26T09:34:16.432Z,101759.09
2023-04-26T09:36:51.390Z,101767.72
2023-04-26T09:39:41.710Z,101765.91
2023-04-26T09:42:09.571Z,101761.47
2023-04-26T09:44:36.378Z,101756.25
2023-04-26T09:47:06.794Z,101757.06
2023-04-26T09:49:48.536Z,101746.50
2023-04-26T09:52:16.258Z,101761.09
2023-04-26T09:54:48.225Z,101760.06
2023-04-26T09:57:16.775Z,101745.28
2023-04-26T09:59:45.732Z,101752.03
2023-04-26T10:02:16.424Z,101752.03
2023-04-26T10:04:46.202Z,101755.44
2023-04-26T10:07:13.891Z,101748.34
2023-04-26T10:09:43.515Z,101758.66
2023-04-26T10:12:14.835Z,101737.78
2023-04-26T10:14:42.549Z,101746.31
2023-04-26T10:17:09.195Z,101750.63
2023-04-26T10:19:37.208Z,101730.72
2023-04-26T10:22:33.607Z,101751.41
2023-04-26T10:25:00.388Z,101734.84
2023-04-26T10:27:53.409Z,101753.81
2023-04-26T10:30:23.054Z,101735.47
2023-04-26T10:32:55.838Z,101739.66
2023-04-26T10:35:28.047Z,101749.13
2023-04-26T10:38:00.558Z,101743.97
2023-04-26T10:40:27.421Z,101738.66
2023-04-26T10:43:29.704Z,101735.94
2023-04-26T10:45:56.938Z,101728.97
2023-04-26T10:48:31.731Z,101734.06
2023-04-26T10:51:01.270Z,101734.88
2023-04-26T10:53:30.315Z,101740.84
2023-04-26T10:55:56.801Z,101725.19
2023-04-26T10:58:34.467Z,101727.69
2023-04-26T11:01:19.080Z,101718.03
2023-04-26T11:03:58.808Z,101716.94
2023-04-26T11:06:26.825Z,101718.66
2023-04-26T11:08:54.299Z,101716.75
2023-04-26T11:11:27.085Z,101721.81
2023-04-26T11:13:53.702Z,101709.34
2023-04-26T11:16:20.232Z,101709.13
2023-04-26T11:18:47.894Z,101703.69
2023-04-26T11:21:18.080Z,101706.78
2023-04-26T11:23:53.874Z,101702.06
2023-04-26T11:26:20.374Z,101703.59
2023-04-26T11:28:49.076Z,101704.38
2023-04-26T11:31:15.687Z,101705.13
2023-04-26T11:33:42.188Z,101696.34
2023-04-26T11:36:08.691Z,101704.22
2023-04-26T11:38:35.325Z,101708.47
2023-04-26T11:41:05.157Z,101700.94
2023-04-26T11:43:39.462Z,101702.81
2023-04-26T11:46:08.492Z,101708.25
2023-04-26T11:48:36.784Z,101705.91
2023-04-26T11:51:05.188Z,101698.22
2023-04-26T11:53:42.364Z,101696.50
2023-04-26T11:56:20.279Z,101710.56
2023-04-26T11:58:51.293Z,101713.19
2023-04-26T12:01:36.085Z,101712.41
2023-04-26T12:04:02.765Z,101709.34
2023-04-26T12:06:43.711Z,101715.59
2023-04-26T12:09:11.320Z,101722.72
2023-04-26T12:11:38.637Z,101725.56
2023-04-26T12:14:05.927Z,101725.59
2023-04-26T12:16:32.777Z,101692.88
2023-04-26T12:18:59.513Z,101709.25
2023-04-26T12:21:30.340Z,101708.56
2023-04-26T12:23:57.529Z,101709.53
2023-04-26T12:26:48.902Z,101713.91
2023-04-26T12:29:15.478Z,101689.72
2023-04-26T12:31:45.239Z,101709.59
2023-04-26T12:34:11.791Z,101673.25
2023-04-26T12:36:41.174Z,101691.44
2023-04-26T12:39:07.826Z,101687.13
2023-04-26T12:41:34.379Z,101683.66
2023-04-26T12:44:03.214Z,101704.47
2023-04-26T12:46:29.852Z,101704.44
2023-04-26T12:48:56.434Z,101682.72
2023-04-26T12:51:25.950Z,101682.50
2023-04-26T12:53:52.795Z,101703.97
2023-04-26T12:56:19.554Z,101684.88
2023-04-26T12:58:46.415Z,101677.03
2023-04-26T13:01:14.189Z,101706.34
2023-04-26T13:03:40.881Z,101689.78
2023-04-26T13:06:07.670Z,101687.72
2023-04-26T13:08:34.205Z,101701.53
2023-04-26T13:11:00.797Z,101697.09
2023-04-26T13:13:39.932Z,101688.22
2023-04-26T13:16:09.949Z,101690.50
2023-04-26T13:18:36.711Z,101682.47
2023-04-26T13:21:03.362Z,101680.34
2023-04-26T13:23:30.058Z,101688.63
2023-04-26T13:25:56.541Z,101696.25
2023-04-26T13:28:23.014Z,101688.28
2023-04-26T13:30:52.410Z,101669.22
2023-04-26T13:33:21.308Z,101670.81
2023-04-26T13:35:48.175Z,101684.47
2023-04-26T13:38:15.705Z,101679.84
2023-04-26T13:40:42.864Z,101667.41
2023-04-26T13:43:09.772Z,101671.44
2023-04-26T13:45:36.766Z,101661.53
2023-04-26T13:48:03.665Z,101665.28
2023-04-26T13:50:30.226Z,101668.38
2023-04-26T13:52:56.905Z,101666.13
2023-04-26T13:55:23.720Z,101659.16
2023-04-26T13:57:50.373Z,101649.06
2023-04-26T14:00:17.519Z,101655.38
2023-04-26T14:02:44.219Z,101652.22
2023-04-26T14:05:11.080Z,101647.28
2023-04-26T14:07:37.732Z,101651.13
2023-04-26T14:10:04.586Z,101652.78
2023-04-26T14:12:31.240Z,101647.66
2023-04-26T14:14:57.759Z,101653.78
2023-04-26T14:17:27.346Z,101649.41
2023-04-26T14:19:54.824Z,101646.19
2023-04-26T14:22:21.423Z,101649.44
2023-04-26T14:24:50.253Z,101648.88
2023-04-26T14:27:16.988Z,101653.00
2023-04-26T14:29:45.360Z,101645.59
2023-04-26T14:32:12.079Z,101635.22
2023-04-26T14:34:42.582Z,101641.97
2023-04-26T14:37:09.154Z,101634.63
2023-04-26T14:39:35.732Z,101631.66
2023-04-26T14:42:03.361Z,101640.47
2023-04-26T14:44:30.300Z,101635.53
2023-04-26T14:46:59.868Z,101639.13
2023-04-26T14:49:26.343Z,101629.66
2023-04-26T14:51:53.689Z,101632.97
2023-04-26T14:54:21.055Z,101610.84
2023-04-26T14:56:47.843Z,101630.91
2023-04-26T14:59:14.387Z,101631.03
2023-04-26T15:01:41.029Z,101630.91
2023-04-26T15:04:08.292Z,101633.34
2023-04-26T15:06:36.505Z,101636.69
2023-04-26T15:09:04.325Z,101620.25
2023-04-26T15:11:30.841Z,101627.25
2023-04-26T15:13:57.297Z,101634.31
2023-04-26T15:16:23.920Z,101625.63
2023-04-26T15:18:50.553Z,101611.84
2023-04-26T15:21:17.816Z,101629.16
2023-04-26T15:23:44.355Z,101618.59
2023-04-26T15:26:10.877Z,101619.34
2023-04-26T15:28:37.382Z,101614.22
2023-04-26T15:31:05.214Z,101619.28
2023-04-26T15:33:32.448Z,101619.25
2023-04-26T15:35:58.985Z,101627.25
2023-04-26T15:38:25.597Z,101622.09
2023-04-26T15:40:55.831Z,101624.81
2023-04-26T15:43:22.296Z,101595.72
2023-04-26T15:45:49.653Z,101604.47
2023-04-26T15:48:19.136Z,101603.06
2023-04-26T15:50:46.321Z,101599.28
2023-04-26T15:53:12.846Z,101611.59
2023-04-26T15:55:39.326Z,101613.50
2023-04-26T15:58:05.893Z,101618.22
2023-04-26T16:00:33.894Z,101587.53
2023-04-26T16:03:00.622Z,101602.25
2023-04-26T16:05:27.751Z,101590.44
2023-04-26T16:07:54.765Z,101605.09
2023-04-26T16:10:21.403Z,101612.03
2023-04-26T16:12:47.983Z,101613.84
2023-04-26T16:15:14.567Z,101610.47
2023-04-26T16:17:41.117Z,101617.38
2023-04-26T16:20:10.716Z,101621.72
2023-04-26T16:22:37.580Z,101631.19
2023-04-26T16:25:06.692Z,101620.75
2023-04-26T16:27:33.284Z,101623.50
2023-04-26T16:29:59.826Z,101633.03
2023-04-26T16:32:26.593Z,101623.59
2023-04-26T16:34:53.183Z,101646.06
2023-04-26T16:37:19.865Z,101632.06
2023-04-26T16:39:46.492Z,101642.34
2023-04-26T16:42:13.097Z,101635.31
2023-04-26T16:44:40.747Z,101643.31
2023-04-26T16:47:07.224Z,101641.75
2023-04-26T16:49:34.257Z,101631.38
2023-04-26T16:52:01.708Z,101634.84
2023-04-26T16:54:31.210Z,101639.19
2023-04-26T16:56:58.311Z,101642.09
2023-04-26T16:59:26.913Z,101616.28
2023-04-26T17:01:54.474Z,101644.28
2023-04-26T17:04:21.186Z,101634.97
2023-04-26T17:06:47.858Z,101639.53
2023-04-26T17:09:14.774Z,101637.06
2023-04-26T17:11:43.586Z,101631.19
2023-04-26T17:14:10.491Z,101635.50
2023-04-26T17:19:04.154Z,101613.59
2023-04-26T17:21:30.700Z,101647.38
2023-04-26T17:23:57.183Z,101640.56
2023-04-26T17:26:23.779Z,101645.09
2023-04-26T17:28:51.247Z,101647.72
2023-04-26T17:31:17.829Z,101645.16
2023-04-26T17:33:45.467Z,101631.53
2023-04-26T17:36:12.009Z,101627.25
2023-04-26T17:38:38.729Z,101637.63
2023-04-26T17:41:05.513Z,101631.59
2023-04-26T17:43:32.514Z,101623.13
2023-04-26T17:45:59.052Z,101631.72
2023-04-26T17:48:25.597Z,101619.75
2023-04-26T17:50:52.989Z,101631.03
2023-04-26T17:53:19.792Z,101636.22
2023-04-26T17:55:49.644Z,101630.22
2023-04-26T17:58:16.214Z,101635.69
2023-04-26T18:00:43.168Z,101631.41
2023-04-26T18:03:12.132Z,101637.59
2023-04-26T18:05:38.890Z,101621.44
2023-04-26T18:08:05.432Z,101642.25
2023-04-26T18:10:32.190Z,101639.72
2023-04-26T18:13:03.945Z,101638.13
2023-04-26T18:15:30.556Z,101641.72
2023-04-26T18:18:00.259Z,101646.03
2023-04-26T18:20:27.068Z,101653.03
2023-04-26T18:22:53.549Z,101639.25
2023-04-26T18:25:20.063Z,101638.47
2023-04-26T18:27:46.854Z,101609.09
2023-04-26T18:30:13.529Z,101638.59
2023-04-26T18:32:40.183Z,101643.94
2023-04-26T18:35:07.263Z,101633.72
2023-04-26T18:37:33.802Z,101625.97
2023-04-26T18:40:01.064Z,101651.09
2023-04-26T18:42:27.642Z,101632.97
2023-04-26T18:44:54.188Z,101625.31
2023-04-26T18:47:21.119Z,101622.84
2023-04-26T18:49:47.747Z,101642.66
2023-04-26T18:52:16.563Z,101646.25
2023-04-26T18:54:43.189Z,101646.28
2023-04-26T18:57:10.663Z,101651.56
2023-04-26T18:59:37.578Z,101632.59
2023-04-26T19:02:05.197Z,101656.88
2023-04-26T19:04:31.983Z,101655.19
2023-04-26T19:06:58.667Z,101662.19
2023-04-26T19:09:25.467Z,101655.22
2023-04-26T19:11:54.068Z,101646.72
2023-04-26T19:14:20.608Z,101669.28
2023-04-26T19:16:47.093Z,101673.66
2023-04-26T19:19:13.764Z,101655.53
2023-04-26T19:21:40.445Z,101673.78
2023-04-26T19:24:07.310Z,101672.97
2023-04-26T19:26:33.850Z,101667.81
2023-04-26T19:29:00.549Z,101658.44
2023-04-26T19:31:27.892Z,101681.72
2023-04-26T19:33:54.472Z,101667.88
2023-04-26T19:36:21.004Z,101676.59
2023-04-26T19:38:48.485Z,101681.81
2023-04-26T19:41:15.090Z,101690.56
2023-04-26T19:43:41.677Z,101687.94
2023-04-26T19:46:12.939Z,101681.88
2023-04-26T19:48:40.884Z,101676.81
2023-04-26T19:51:07.403Z,101673.44
2023-04-26T19:53:36.926Z,101686.31
2023-04-26T19:56:03.497Z,101678.59
2023-04-26T19:58:30.087Z,101687.25
2023-04-26T20:00:58.937Z,101683.81
2023-04-26T20:03:25.830Z,101683.81
2023-04-26T20:05:52.360Z,101687.34
2023-04-26T20:08:19.193Z,101684.78
2023-04-26T20:10:45.751Z,101677.13
2023-04-26T20:13:15.035Z,101689.22
2023-04-26T20:15:41.619Z,101698.75
2023-04-26T20:18:08.145Z,101688.41
2023-04-26T20:20:34.717Z,101666.03
2023-04-26T20:23:01.201Z,101680.72
2023-04-26T20:25:27.771Z,101713.69
2023-04-26T20:27:54.322Z,101712.84
2023-04-26T20:30:22.975Z,101706.78
2023-04-26T20:32:49.520Z,101706.84
2023-04-26T20:35:16.855Z,101717.28
2023-04-26T20:37:43.372Z,101720.81
2023-04-26T20:40:10.299Z,101719.16
2023-04-26T20:42:39.571Z,101727.00
2023-04-26T20:45:06.645Z,101723.50
2023-04-26T20:47:33.264Z,101713.22
2023-04-26T20:49:59.774Z,101720.19
2023-04-26T20:52:26.855Z,101710.72
2023-04-26T20:54:53.339Z,101714.19
2023-04-26T20:57:19.805Z,101711.63
2023-04-26T20:59:46.319Z,101717.69
2023-04-26T21:02:12.861Z,101736.72
2023-04-26T21:04:41.775Z,101731.63
2023-04-26T21:07:09.382Z,101738.56
2023-04-26T21:09:35.937Z,101702.25
2023-04-26T21:12:03.224Z,101726.53
2023-04-26T21:14:29.817Z,101730.03
2023-04-26T21:16:56.431Z,101733.53
2023-04-26T21:19:25.626Z,101737.88
2023-04-26T21:21:52.171Z,101729.22
2023-04-26T21:24:18.717Z,101747.41
2023-04-26T21:26:45.362Z,101749.19
2023-04-26T21:29:12.679Z,101737.13
2023-04-26T21:31:39.342Z,101743.19
2023-04-26T21:34:05.939Z,101760.53
2023-04-26T21:36:32.534Z,101759.72
2023-04-26T21:38:59.132Z,101724.28
2023-04-26T21:41:25.908Z,101749.38
2023-04-26T21:43:56.219Z,101738.13
2023-04-26T21:46:22.970Z,101754.66
2023-04-26T21:48:49.512Z,101752.06
2023-04-26T21:51:16.036Z,101764.22
2023-04-26T21:53:42.837Z,101754.69
2023-04-26T21:56:10.417Z,101734.81
2023-04-26T21:58:37.088Z,101729.69
2023-04-26T22:01:08.492Z,101742.66
2023-04-26T22:03:35.422Z,101748.78
2023-04-26T22:06:02.074Z,101741.03
2023-04-26T22:08:28.692Z,101739.31
2023-04-26T22:10:55.170Z,101740.25
2023-04-26T22:13:22.574Z,101728.22
2023-04-26T22:15:49.195Z,101748.13
2023-04-26T22:18:16.066Z,101759.47
2023-04-26T22:20:42.537Z,101756.03
2023-04-26T22:23:09.195Z,101748.28
2023-04-26T22:25:35.830Z,101725.81
2023-04-26T22:28:02.397Z,101744.84
2023-04-26T22:30:29.030Z,101746.66
2023-04-26T22:32:58.029Z,101756.22
2023-04-26T22:35:26.919Z,101759.72
2023-04-26T22:37:53.884Z,101754.56
2023-04-26T22:40:20.980Z,101751.13
2023-04-26T22:42:47.617Z,101737.31
2023-04-26T22:45:14.254Z,101754.66
2023-04-26T22:47:41.797Z,101751.25
2023-04-26T22:50:09.625Z,101762.53
2023-04-26T22:52:36.809Z,101760.88
2023-04-26T22:55:03.620Z,101747.91
2023-04-26T22:57:31.082Z,101760.91
2023-04-26T23:00:00.644Z,101741.84
2023-04-26T23:02:27.326Z,101754.03
2023-04-26T23:04:54.228Z,101728.94
2023-04-26T23:07:21.213Z,101743.69
2023-04-26T23:09:47.797Z,101748.06
2023-04-26T23:12:21.234Z,101747.22
2023-04-26T23:14:50.813Z,101757.66
2023-04-26T23:17:20.326Z,101758.53
2023-04-26T23:19:48.129Z,101752.50
2023-04-26T23:22:18.646Z,101757.69
2023-04-26T23:24:45.418Z,101736.94
2023-04-26T23:27:11.991Z,101764.63
2023-04-26T23:29:38.563Z,101762.91
2023-04-26T23:32:05.136Z,101765.50
2023-04-26T23:34:31.786Z,101775.06
2023-04-26T23:36:59.064Z,101779.38
2023-04-26T23:39:35.839Z,101783.75
2023-04-26T23:42:02.571Z,101771.59
2023-04-26T23:44:29.203Z,101775.94
2023-04-26T23:46:55.835Z,101789.78
2023-04-26T23:49:22.359Z,101778.50
2023-04-26T23:51:48.966Z,101785.44
2023-04-26T23:54:16.467Z,101775.91
2023-04-26T23:56:42.951Z,101789.75
2023-04-26T23:59:09.418Z,101773.28
